Time;durP1;ratioP1;P1;durP2;ratioP2;P2;SDS_P1;SDS_P2;PMS_P1;PMS_P2;Temp;Humidity;BMP_temperature;BMP_pressure;BME280_temperature;BME280_humidity;BME280_pressure;Samples;Min_cycle;Max_cycle;Signal;HPM_P1;HPM_P2
2023/03/02 00:02:03;;;;;;;30.92;7.90;;;9.50;99.90;;;;;;4970390;23;20053;-93
2023/03/02 00:04:52;;;;;;;32.30;8.18;;;9.50;99.90;;;;;;4827558;29;20052;-93
2023/03/02 00:07:42;;;;;;;33.58;8.20;;;9.40;99.90;;;;;;4852864;29;20042;-92
2023/03/02 00:10:55;;;;;;;28.33;7.82;;;9.40;99.90;;;;;;4817647;29;20042;-92
2023/03/02 00:13:31;;;;;;;18.02;7.25;;;9.40;99.90;;;;;;4815562;29;20044;-92
2023/03/02 00:16:06;;;;;;;18.67;7.20;;;9.40;99.90;;;;;;4814961;29;20040;-93
2023/03/02 00:18:55;;;;;;;30.95;7.25;;;9.30;99.90;;;;;;4831979;29;20048;-93
2023/03/02 00:21:25;;;;;;;26.30;7.57;;;9.30;99.90;;;;;;4814391;29;20120;-91
2023/03/02 00:23:52;;;;;;;26.23;8.88;;;9.20;99.90;;;;;;4828740;29;20103;-93
2023/03/02 00:26:26;;;;;;;30.25;8.23;;;9.30;99.90;;;;;;4813939;29;20090;-93
2023/03/02 00:29:09;;;;;;;27.20;7.10;;;9.30;99.90;;;;;;4814784;29;20030;-92
2023/03/02 00:32:44;;;;;;;19.80;7.15;;;9.30;99.90;;;;;;4840158;23;20129;-94
2023/03/02 04:37:31;;;;;;;;;;;;;;;;;;;;;
2023/03/02 04:59:44;;;;;;;26.80;6.63;;;7.50;99.90;;;;;;5292613;23;20152;-92
2023/03/02 05:02:11;;;;;;;22.20;5.70;;;7.50;99.90;;;;;;4867141;29;20065;-92
2023/03/02 05:04:40;;;;;;;21.38;6.47;;;7.50;99.90;;;;;;4838089;29;20111;-92
2023/03/02 05:07:08;;;;;;;20.63;5.72;;;7.50;99.90;;;;;;4838980;29;20128;-93
2023/03/02 05:09:38;;;;;;;25.15;6.95;;;7.50;99.90;;;;;;4807145;29;20370;-92
2023/03/02 05:12:08;;;;;;;29.75;7.13;;;7.50;99.90;;;;;;4836634;29;20042;-92
2023/03/02 05:14:44;;;;;;;20.52;6.65;;;7.60;99.90;;;;;;4852520;29;20042;-92
2023/03/02 05:17:15;;;;;;;27.85;6.53;;;7.70;99.90;;;;;;4839332;29;20053;-92
2023/03/02 05:19:44;;;;;;;15.57;6.40;;;7.70;99.90;;;;;;4835358;29;20053;-92
2023/03/02 05:22:11;;;;;;;23.50;6.53;;;7.80;99.90;;;;;;4853978;29;20473;-92
2023/03/02 05:24:38;;;;;;;21.10;7.15;;;7.80;99.90;;;;;;4846200;29;20065;-92
2023/03/02 05:27:07;;;;;;;22.40;6.57;;;7.90;99.90;;;;;;4866939;29;20058;-92
2023/03/02 05:29:35;;;;;;;22.15;6.03;;;7.80;99.90;;;;;;4857005;29;20042;-93
2023/03/02 05:34:58;;;;;;;26.30;7.05;;;7.90;99.90;;;;;;5355900;23;20054;-94
2023/03/02 05:42:14;;;;;;;26.77;6.95;;;8.00;99.90;;;;;;4784708;30;20048;-94
2023/03/02 05:44:44;;;;;;;15.82;5.78;;;8.00;99.90;;;;;;4714877;30;20045;-93
2023/03/02 05:47:37;;;;;;;19.67;7.25;;;8.00;99.90;;;;;;4714215;30;20061;-93
2023/03/02 05:50:37;;;;;;;27.02;6.95;;;8.00;99.90;;;;;;4727484;30;20041;-95
2023/03/02 05:53:39;;;;;;;28.98;6.18;;;8.10;99.90;;;;;;4709313;30;20045;-93
2023/03/02 05:59:07;;;;;;;19.95;6.00;;;8.30;99.90;;;;;;4899290;24;20144;-92
2023/03/02 06:02:17;;;;;;;16.33;6.38;;;8.50;99.90;;;;;;4845677;29;20026;-91
2023/03/02 06:05:17;;;;;;;22.85;7.10;;;8.70;99.90;;;;;;4839469;29;20041;-92
2023/03/02 07:09:48;;;;;;;24.40;18.40;;;15.80;99.90;;;;;;5495636;23;20049;-90
2023/03/02 07:12:24;;;;;;;19.55;17.20;;;15.80;99.90;;;;;;4850034;29;20048;-92
2023/03/02 07:14:51;;;;;;;20.25;17.55;;;15.90;99.90;;;;;;4850907;29;20029;-92
2023/03/02 07:17:23;;;;;;;19.85;17.10;;;15.80;99.90;;;;;;4849931;29;20033;-92
2023/03/02 07:19:57;;;;;;;18.88;16.98;;;15.60;99.90;;;;;;4847211;29;20066;-92
2023/03/02 07:22:24;;;;;;;18.83;17.17;;;15.90;99.90;;;;;;4847151;29;20042;-92
2023/03/02 07:24:59;;;;;;;22.05;17.63;;;16.20;99.90;;;;;;4832311;29;20029;-91
2023/03/02 07:27:28;;;;;;;20.80;17.58;;;16.50;99.90;;;;;;4846871;29;20033;-92
2023/03/02 07:29:54;;;;;;;19.98;17.90;;;16.60;99.90;;;;;;4832590;29;20037;-92
2023/03/02 07:32:25;;;;;;;19.25;17.50;;;16.40;99.90;;;;;;4847120;29;20049;-94
2023/03/02 07:34:51;;;;;;;23.90;17.85;;;16.40;99.90;;;;;;4847110;29;20067;-93
2023/03/02 07:37:20;;;;;;;20.02;17.08;;;16.50;99.90;;;;;;4847258;29;20033;-95
2023/03/02 07:39:49;;;;;;;19.13;17.30;;;16.70;99.90;;;;;;5054785;24;20237;-94
2023/03/02 07:42:38;;;;;;;22.95;17.88;;;16.90;99.90;;;;;;4837317;29;20506;-92
2023/03/02 07:51:16;;;;;;;20.92;17.75;;;17.30;99.90;;;;;;4853385;23;20057;-92
2023/03/02 08:00:10;;;;;;;20.33;17.88;;;16.50;99.90;;;;;;4961901;23;20077;-92
2023/03/02 08:02:41;;;;;;;27.40;17.98;;;16.10;99.90;;;;;;4759249;30;20039;-92
2023/03/02 08:05:09;;;;;;;19.13;17.42;;;16.00;99.90;;;;;;4777442;30;20126;-92
2023/03/02 08:07:36;;;;;;;19.40;17.55;;;16.00;99.90;;;;;;4777788;30;20042;-93
2023/03/02 08:10:03;;;;;;;22.58;17.00;;;15.60;99.90;;;;;;4774988;30;20035;-90
2023/03/02 08:12:30;;;;;;;23.13;18.10;;;16.00;99.90;;;;;;4770505;30;20082;-90
2023/03/02 08:14:56;;;;;;;20.15;18.08;;;16.40;99.90;;;;;;4762022;30;20032;-87
2023/03/02 08:17:23;;;;;;;20.17;17.92;;;16.50;99.90;;;;;;4759639;30;20039;-89
2023/03/02 08:19:49;;;;;;;19.70;17.80;;;16.90;99.90;;;;;;4767403;30;20032;-88
2023/03/02 08:22:18;;;;;;;25.50;18.20;;;16.90;99.90;;;;;;4775176;30;20051;-92
2023/03/02 08:24:44;;;;;;;23.20;19.35;;;16.80;99.90;;;;;;4772361;30;20525;-90
2023/03/02 08:27:14;;;;;;;20.55;18.40;;;16.80;99.90;;;;;;4775339;30;20043;-91
2023/03/02 08:29:40;;;;;;;19.27;17.58;;;16.90;99.90;;;;;;4776493;30;20100;-88
2023/03/02 08:32:07;;;;;;;19.50;17.55;;;16.70;99.90;;;;;;4775125;29;20039;-89
2023/03/02 08:34:33;;;;;;;21.90;17.70;;;17.00;99.90;;;;;;4813760;29;20022;-89
2023/03/02 08:36:59;;;;;;;24.30;17.50;;;17.00;99.90;;;;;;4832453;29;20411;-91
2023/03/02 08:39:29;;;;;;;23.08;19.25;;;16.60;99.90;;;;;;4828081;29;20018;-86
2023/03/02 08:41:55;;;;;;;21.10;17.50;;;16.40;99.90;;;;;;4826531;29;20373;-87
2023/03/02 08:44:22;;;;;;;19.98;17.88;;;16.30;99.90;;;;;;4816628;29;20026;-89
2023/03/02 08:46:50;;;;;;;20.90;17.52;;;16.10;99.90;;;;;;4821729;29;20049;-90
2023/03/02 08:49:17;;;;;;;27.73;17.23;;;16.20;99.90;;;;;;4828669;29;20060;-92
2023/03/02 08:51:55;;;;;;;26.38;18.63;;;16.80;99.90;;;;;;4850532;29;20042;-95
2023/03/02 08:56:50;;;;;;;20.13;18.00;;;18.00;99.90;;;;;;4844347;29;20053;-88
2023/03/02 08:59:17;;;;;;;23.67;18.00;;;18.20;99.90;;;;;;4814462;29;20042;-85
2023/03/02 09:01:44;;;;;;;19.88;18.20;;;18.20;99.90;;;;;;4815724;29;20034;-85
2023/03/02 09:04:12;;;;;;;19.85;18.02;;;18.10;99.90;;;;;;4833450;29;20038;-78
2023/03/02 09:06:44;;;;;;;21.92;17.73;;;17.90;99.90;;;;;;4837689;29;20038;-77
2023/03/02 09:09:12;;;;;;;19.83;18.10;;;17.80;99.90;;;;;;4831193;29;20042;-79
2023/03/02 09:11:41;;;;;;;25.83;18.05;;;18.10;99.90;;;;;;4812456;29;20037;-78
2023/03/02 09:14:07;;;;;;;19.98;18.17;;;18.50;99.90;;;;;;4834607;29;20034;-77
2023/03/02 09:16:56;;;;;;;21.33;18.20;;;18.50;99.90;;;;;;4831965;29;20027;-92
2023/03/02 09:19:23;;;;;;;19.83;17.85;;;18.20;99.90;;;;;;4827465;29;20121;-90
2023/03/02 09:21:49;;;;;;;19.63;17.60;;;18.10;99.90;;;;;;4812042;29;20110;-86
2023/03/02 09:24:16;;;;;;;20.35;18.30;;;18.30;99.90;;;;;;4811824;29;20045;-88
2023/03/02 09:26:44;;;;;;;19.83;17.90;;;18.40;99.90;;;;;;4811930;29;20030;-90
2023/03/02 09:29:12;;;;;;;20.30;18.40;;;18.60;99.90;;;;;;4811841;29;20567;-91
2023/03/02 09:31:38;;;;;;;21.48;19.17;;;18.80;99.90;;;;;;4811927;29;20050;-92
2023/03/02 09:34:05;;;;;;;21.38;19.23;;;19.10;99.90;;;;;;4816060;29;20034;-82
2023/03/02 09:36:31;;;;;;;23.90;18.40;;;18.90;99.90;;;;;;4828833;29;20039;-85
2023/03/02 09:38:58;;;;;;;20.05;18.23;;;18.90;99.90;;;;;;4798927;29;20038;-85
2023/03/02 09:41:44;;;;;;;20.90;19.05;;;18.60;99.90;;;;;;4813617;29;20044;-85
2023/03/02 09:44:36;;;;;;;20.98;18.63;;;18.60;99.90;;;;;;4828936;29;20485;-85
2023/03/02 09:47:12;;;;;;;20.60;18.48;;;18.50;99.90;;;;;;4813543;29;20046;-86
2023/03/02 09:49:50;;;;;;;19.60;17.90;;;18.50;99.90;;;;;;4829053;29;20034;-91
2023/03/02 09:52:16;;;;;;;20.48;18.40;;;18.20;99.90;;;;;;4821981;29;20038;-89
2023/03/02 09:54:42;;;;;;;20.48;18.55;;;18.40;99.90;;;;;;4830223;29;20487;-85
2023/03/02 09:57:25;;;;;;;20.02;18.23;;;18.50;99.90;;;;;;4826595;29;20042;-91
2023/03/02 10:00:12;;;;;;;19.87;18.03;;;18.70;99.90;;;;;;4822215;29;20079;-88
2023/03/02 10:02:49;;;;;;;19.55;18.05;;;18.90;99.90;;;;;;4839465;29;20093;-88
2023/03/02 10:05:29;;;;;;;20.10;18.00;;;18.70;99.90;;;;;;4823218;29;20038;-90
2023/03/02 10:07:55;;;;;;;20.88;18.65;;;18.70;99.90;;;;;;4827827;29;20083;-89
2023/03/02 10:10:22;;;;;;;19.35;17.65;;;18.70;99.90;;;;;;4806964;29;20056;-86
2023/03/02 10:12:59;;;;;;;19.88;18.10;;;18.50;99.90;;;;;;4803446;29;20095;-90
2023/03/02 10:15:50;;;;;;;19.70;18.05;;;18.30;99.90;;;;;;4804408;29;20090;-89
2023/03/02 10:18:20;;;;;;;19.58;17.92;;;18.40;99.90;;;;;;4778079;29;20043;-87
2023/03/02 10:21:02;;;;;;;19.85;18.48;;;18.20;99.90;;;;;;4818933;29;20175;-90
2023/03/02 10:24:06;;;;;;;21.02;19.23;;;18.40;99.90;;;;;;4812070;29;20034;-91
2023/03/02 10:26:40;;;;;;;20.52;18.60;;;18.60;99.90;;;;;;4811492;29;20038;-90
2023/03/02 10:29:38;;;;;;;21.38;19.15;;;18.80;99.90;;;;;;4811189;29;20079;-87
2023/03/02 10:32:19;;;;;;;19.77;17.92;;;18.70;99.90;;;;;;4796209;29;20524;-89
2023/03/02 10:34:48;;;;;;;20.33;18.58;;;18.50;99.90;;;;;;4842684;29;20559;-87
2023/03/02 10:37:23;;;;;;;19.80;17.90;;;18.20;99.90;;;;;;4832844;29;20035;-89
2023/03/02 10:39:52;;;;;;;19.67;17.98;;;18.00;99.90;;;;;;4848161;29;20030;-90
2023/03/02 10:42:32;;;;;;;20.17;18.20;;;18.40;99.90;;;;;;4833109;29;20437;-89
2023/03/02 10:45:24;;;;;;;19.90;18.20;;;18.60;99.90;;;;;;4843479;29;20084;-89
2023/03/02 10:48:17;;;;;;;20.85;18.58;;;18.70;99.90;;;;;;4833681;29;20038;-90
2023/03/02 10:50:43;;;;;;;20.33;18.23;;;18.80;99.90;;;;;;4828531;29;20132;-88
2023/03/02 10:53:20;;;;;;;19.00;17.25;;;18.90;99.90;;;;;;4816839;29;20487;-92
2023/03/02 10:55:52;;;;;;;19.67;17.70;;;18.80;99.90;;;;;;4812976;29;20054;-89
2023/03/02 10:58:26;;;;;;;19.15;17.27;;;18.90;99.90;;;;;;4829443;29;20449;-90
2023/03/02 11:01:03;;;;;;;18.95;17.40;;;18.00;99.90;;;;;;4816351;29;20062;-90
2023/03/02 11:03:31;;;;;;;20.30;17.50;;;17.20;99.90;;;;;;4815894;29;20138;-90
2023/03/02 11:06:09;;;;;;;19.45;17.73;;;17.50;99.90;;;;;;4815842;29;20486;-90
2023/03/02 11:08:36;;;;;;;18.85;17.50;;;17.40;99.90;;;;;;4815663;29;20041;-83
2023/03/02 11:11:04;;;;;;;19.35;17.77;;;17.50;99.90;;;;;;4815194;29;20077;-85
2023/03/02 11:13:33;;;;;;;19.77;18.00;;;17.70;99.90;;;;;;4814552;29;20076;-77
2023/03/02 11:16:02;;;;;;;19.92;18.10;;;18.30;99.90;;;;;;4846137;29;20113;-79
2023/03/02 11:19:00;;;;;;;19.88;18.05;;;18.20;99.90;;;;;;4869032;29;20037;-80
2023/03/02 11:21:35;;;;;;;19.90;17.90;;;18.60;99.90;;;;;;4845850;29;20036;-78
2023/03/02 11:24:09;;;;;;;19.10;17.52;;;18.40;99.90;;;;;;4882493;29;20116;-86
2023/03/02 11:27:13;;;;;;;20.17;18.08;;;18.30;99.90;;;;;;4849124;29;20418;-83
2023/03/02 11:30:02;;;;;;;18.67;17.07;;;18.20;99.90;;;;;;4825162;29;20061;-83
2023/03/02 11:33:05;;;;;;;24.75;19.33;;;17.80;99.90;;;;;;4827246;29;20307;-83
2023/03/02 11:36:05;;;;;;;19.52;17.70;;;18.20;99.90;;;;;;4808581;29;20049;-85
2023/03/02 11:38:55;;;;;;;19.35;17.58;;;18.40;99.90;;;;;;4797026;29;20043;-95
2023/03/02 11:41:34;;;;;;;19.02;17.63;;;18.30;99.90;;;;;;4809690;29;20090;-92
2023/03/02 11:44:11;;;;;;;19.60;17.90;;;18.80;99.90;;;;;;4811013;29;20082;-89
2023/03/02 11:47:01;;;;;;;25.48;20.70;;;18.60;99.90;;;;;;4822315;29;20060;-92
2023/03/02 11:50:00;;;;;;;;;;;;;;;;;;;;;
2023/03/02 11:53:20;;;;;;;21.08;19.30;;;18.30;99.90;;;;;;4843965;29;20061;-94
2023/03/02 11:56:04;;;;;;;22.38;18.40;;;18.00;99.90;;;;;;4828933;29;20099;-94
2023/03/02 11:59:07;;;;;;;19.77;17.92;;;18.30;99.90;;;;;;4815183;29;20027;-94
2023/03/02 12:02:18;;;;;;;19.45;17.85;;;18.60;99.90;;;;;;4829683;29;20071;-94
2023/03/02 12:11:00;;;;;;;19.92;18.00;;;18.60;99.90;;;;;;4884515;29;20045;-93
2023/03/02 12:13:36;;;;;;;19.20;17.63;;;18.60;99.90;;;;;;4812917;29;20119;-92
2023/03/02 12:16:40;;;;;;;19.63;17.40;;;18.60;99.90;;;;;;4824369;29;20064;-94
2023/03/02 12:20:06;;;;;;;21.30;18.05;;;18.50;99.90;;;;;;4962631;23;20072;-93
2023/03/02 12:23:22;;;;;;;24.30;21.60;;;17.90;99.90;;;;;;4865700;29;20044;-95
2023/03/02 12:26:19;;;;;;;24.85;22.52;;;18.20;99.90;;;;;;4818425;29;20022;-95
2023/03/02 12:29:59;;;;;;;20.20;18.25;;;18.30;99.90;;;;;;4919020;24;20057;-94
2023/03/02 12:32:35;;;;;;;19.50;17.80;;;18.70;99.90;;;;;;4812300;29;20046;-94
2023/03/02 12:35:30;;;;;;;19.98;18.00;;;19.00;99.90;;;;;;4786381;30;20076;-94
2023/03/02 12:38:17;;;;;;;18.80;17.30;;;18.40;99.90;;;;;;4791110;30;20027;-94
2023/03/02 12:41:29;;;;;;;19.05;17.63;;;18.30;99.90;;;;;;4789624;30;20048;-93
2023/03/02 12:44:05;;;;;;;18.85;17.50;;;18.20;99.90;;;;;;4770684;30;20044;-92
2023/03/02 12:46:39;;;;;;;18.77;17.27;;;18.20;99.90;;;;;;4775548;30;20036;-94
2023/03/02 12:50:00;;;;;;;20.73;18.50;;;18.20;99.90;;;;;;4760351;30;20051;-94
2023/03/02 12:52:40;;;;;;;18.70;16.92;;;18.20;99.90;;;;;;4715687;30;20088;-94
2023/03/02 12:55:19;;;;;;;18.05;16.58;;;18.60;99.90;;;;;;5007566;24;20045;-94
2023/03/02 12:57:56;;;;;;;19.17;17.20;;;18.80;99.90;;;;;;4866268;29;20057;-94
2023/03/02 13:00:31;;;;;;;18.67;17.38;;;18.60;99.90;;;;;;4831334;29;20487;-94
2023/03/02 13:03:05;;;;;;;18.50;16.70;;;18.40;99.90;;;;;;4883001;23;20054;-93
2023/03/02 14:05:35;;;;;;;19.25;17.83;;;17.70;99.90;;;;;;4801801;29;20046;-93
2023/03/02 14:08:08;;;;;;;18.50;17.13;;;17.70;99.90;;;;;;4719428;23;20097;-93
2023/03/02 14:10:41;;;;;;;18.17;16.95;;;17.50;99.90;;;;;;4859907;29;20057;-94
2023/03/02 14:16:54;;;;;;;19.10;17.40;;;17.60;99.90;;;;;;4802080;30;20023;-94
2023/03/02 14:23:55;;;;;;;18.98;17.50;;;17.60;99.90;;;;;;4858945;29;20061;-94
2023/03/02 14:31:39;;;;;;;;;;;;;;;;;;;;;
2023/03/02 14:37:44;;;;;;;19.08;17.45;;;17.30;99.90;;;;;;4855260;29;20054;-95
2023/03/02 14:40:41;;;;;;;18.75;16.92;;;17.20;99.90;;;;;;4841284;29;20030;-95
2023/03/02 14:43:29;;;;;;;19.10;17.52;;;17.10;99.90;;;;;;4841151;29;20483;-94
2023/03/02 14:46:30;;;;;;;18.33;17.00;;;17.10;99.90;;;;;;4837831;29;20062;-94
2023/03/02 14:56:22;;;;;;;18.33;16.70;;;17.00;99.90;;;;;;4829916;29;20532;-92
2023/03/02 14:59:11;;;;;;;18.15;16.70;;;16.90;99.90;;;;;;4815298;29;20031;-93
2023/03/02 15:01:43;;;;;;;18.17;16.63;;;17.00;99.90;;;;;;4789220;30;20043;-93
2023/03/02 15:04:10;;;;;;;18.27;16.98;;;16.90;99.90;;;;;;4786418;30;20146;-93
2023/03/02 15:06:40;;;;;;;18.80;17.27;;;16.70;99.90;;;;;;4761767;30;20101;-93
2023/03/02 15:09:07;;;;;;;18.73;17.00;;;16.60;99.90;;;;;;4748079;30;20031;-93
2023/03/02 15:11:36;;;;;;;17.48;16.38;;;16.50;99.90;;;;;;4758089;30;20063;-93
2023/03/02 15:17:00;;;;;;;19.33;17.67;;;16.40;99.90;;;;;;4903584;23;20096;-93
2023/03/02 15:19:29;;;;;;;18.15;16.85;;;16.30;99.90;;;;;;4804293;29;20041;-93
2023/03/02 15:22:12;;;;;;;19.35;17.55;;;16.30;99.90;;;;;;4884730;24;20049;-93
2023/03/02 15:44:20;;;;;;;26.42;22.48;;;15.60;99.90;;;;;;4890779;29;20041;-93
2023/03/02 15:46:56;;;;;;;23.85;18.90;;;15.50;99.90;;;;;;4855341;29;20038;-93
2023/03/02 15:49:26;;;;;;;19.42;17.85;;;15.30;99.90;;;;;;4836329;29;20516;-93
2023/03/02 15:51:58;;;;;;;19.70;18.08;;;15.20;99.90;;;;;;4850618;29;20046;-94
2023/03/02 15:54:27;;;;;;;21.45;19.30;;;15.00;99.90;;;;;;4836140;29;20046;-93
2023/03/02 15:56:53;;;;;;;21.98;19.60;;;14.90;99.90;;;;;;4819586;29;20076;-93
2023/03/02 15:59:21;;;;;;;20.23;17.83;;;14.80;99.90;;;;;;4851093;29;20062;-93
2023/03/02 16:01:48;;;;;;;18.88;17.40;;;14.80;99.90;;;;;;4850747;29;20038;-93
2023/03/02 16:04:16;;;;;;;19.50;17.75;;;14.60;99.90;;;;;;4819825;29;20030;-94
2023/03/02 16:06:43;;;;;;;19.05;17.50;;;14.60;99.90;;;;;;4821664;29;20038;-94
2023/03/02 16:09:10;;;;;;;20.77;19.00;;;14.60;99.90;;;;;;4820294;29;20081;-93
2023/03/02 16:11:36;;;;;;;20.13;18.17;;;14.40;99.90;;;;;;4835430;29;20062;-93
2023/03/02 16:14:03;;;;;;;20.30;18.42;;;14.40;99.90;;;;;;4820611;29;20034;-93
2023/03/02 16:16:30;;;;;;;20.38;18.40;;;14.40;99.90;;;;;;4850268;29;20041;-93
2023/03/02 16:18:58;;;;;;;21.77;19.48;;;14.30;99.90;;;;;;4836036;29;20041;-93
2023/03/02 16:21:27;;;;;;;21.20;19.20;;;14.20;99.90;;;;;;4835185;29;20061;-93
2023/03/02 16:24:01;;;;;;;22.77;20.83;;;14.20;99.90;;;;;;4849811;29;20029;-94
2023/03/02 16:26:28;;;;;;;23.77;21.58;;;14.10;99.90;;;;;;4853357;29;20038;-93
2023/03/02 16:28:55;;;;;;;22.77;20.65;;;14.00;99.90;;;;;;4838670;29;20061;-93
2023/03/02 16:31:25;;;;;;;22.48;20.52;;;13.90;99.90;;;;;;4852692;29;20077;-94
2023/03/02 16:33:54;;;;;;;23.17;21.13;;;13.80;99.90;;;;;;4834230;29;20034;-93
2023/03/02 16:36:21;;;;;;;22.65;20.23;;;13.70;99.90;;;;;;4839734;29;20073;-93
2023/03/02 16:38:48;;;;;;;22.10;20.20;;;13.60;99.90;;;;;;4843890;29;20030;-94
2023/03/02 16:41:21;;;;;;;21.27;19.27;;;13.50;99.90;;;;;;4835143;29;20041;-93
2023/03/02 16:43:55;;;;;;;21.47;19.50;;;13.50;99.90;;;;;;4842993;29;20045;-92
2023/03/02 16:46:23;;;;;;;21.17;19.30;;;13.40;99.90;;;;;;4857266;29;20029;-93
2023/03/02 16:48:51;;;;;;;21.13;19.08;;;13.30;99.90;;;;;;4858170;29;20033;-93
2023/03/02 17:04:24;;;;;;;21.10;19.20;;;13.10;99.90;;;;;;5102392;27;20463;-92
2023/03/02 17:06:50;;;;;;;20.80;19.15;;;12.80;99.90;;;;;;5087229;28;20029;-92
2023/03/02 17:09:17;;;;;;;22.45;20.38;;;12.80;99.90;;;;;;5086990;28;20032;-92
2023/03/02 17:11:44;;;;;;;26.02;23.83;;;12.70;99.90;;;;;;5090282;28;20032;-93
2023/03/02 17:14:10;;;;;;;22.02;20.15;;;12.60;99.90;;;;;;5096056;28;20028;-92
2023/03/02 17:16:40;;;;;;;20.40;19.10;;;12.60;99.90;;;;;;5095911;28;20032;-93
2023/03/02 17:19:10;;;;;;;21.60;19.80;;;12.50;99.90;;;;;;5081635;28;20024;-93
2023/03/02 17:21:37;;;;;;;20.73;19.27;;;12.50;99.90;;;;;;5079900;28;20036;-92
2023/03/02 17:24:03;;;;;;;21.33;19.42;;;12.50;99.90;;;;;;5079567;28;20020;-92
2023/03/02 17:26:30;;;;;;;21.60;19.63;;;12.50;99.90;;;;;;5080982;28;20115;-93
2023/03/02 17:28:57;;;;;;;22.23;20.25;;;12.40;99.90;;;;;;5080515;28;20060;-92
2023/03/02 17:31:23;;;;;;;22.30;20.15;;;12.40;99.90;;;;;;5080336;28;20096;-93
2023/03/02 17:33:50;;;;;;;20.95;19.17;;;12.40;99.90;;;;;;5081961;28;20485;-92
2023/03/02 17:36:17;;;;;;;21.67;19.60;;;12.30;99.90;;;;;;5100172;28;20032;-93
2023/03/02 17:38:44;;;;;;;21.92;20.02;;;12.20;99.90;;;;;;5080251;28;20431;-93
2023/03/02 17:41:11;;;;;;;21.77;19.67;;;12.00;99.90;;;;;;5081219;28;20024;-94
2023/03/02 17:43:40;;;;;;;23.13;20.75;;;11.90;99.90;;;;;;5079822;28;20048;-94
2023/03/02 17:46:19;;;;;;;22.08;19.98;;;11.80;99.90;;;;;;5081021;28;20035;-93
2023/03/02 17:48:55;;;;;;;22.30;19.58;;;11.60;99.90;;;;;;5079878;28;20064;-93
2023/03/02 17:51:23;;;;;;;19.73;18.17;;;11.40;99.90;;;;;;5080479;28;20028;-92
2023/03/02 17:53:51;;;;;;;20.27;18.67;;;11.20;99.90;;;;;;5080532;28;20029;-92
2023/03/02 17:56:21;;;;;;;18.50;17.10;;;11.00;99.90;;;;;;5078509;28;20101;-92
2023/03/02 17:59:06;;;;;;;18.90;17.08;;;10.90;99.90;;;;;;5081743;28;20366;-93
2023/03/02 18:01:33;;;;;;;;;;;10.80;99.90;;;;;;5080418;28;20025;-93
2023/03/02 18:03:59;;;;;;;17.60;16.10;;;10.80;99.90;;;;;;5073759;28;19916;-93
2023/03/02 18:06:26;;;;;;;20.67;16.13;;;10.70;99.90;;;;;;5066766;28;20024;-93
2023/03/02 18:08:54;;;;;;;17.40;15.80;;;10.70;99.90;;;;;;5067675;28;20056;-93
2023/03/02 18:11:23;;;;;;;17.10;15.35;;;10.70;99.90;;;;;;5065917;28;20081;-93
2023/03/02 18:13:56;;;;;;;17.50;15.82;;;10.70;99.90;;;;;;5065405;28;20033;-93
2023/03/02 18:16:25;;;;;;;17.48;16.15;;;10.80;99.90;;;;;;5070160;28;20393;-94
2023/03/02 18:18:51;;;;;;;20.25;17.50;;;10.80;99.90;;;;;;5069345;28;20028;-94
2023/03/02 18:21:21;;;;;;;22.90;16.48;;;10.80;99.90;;;;;;5069813;28;20029;-94
2023/03/02 18:23:48;;;;;;;20.65;18.55;;;10.90;99.90;;;;;;5070682;28;20040;-94
2023/03/02 18:26:16;;;;;;;20.70;18.42;;;10.90;99.90;;;;;;5069323;28;20033;-93
2023/03/02 18:28:47;;;;;;;20.63;18.52;;;10.90;99.90;;;;;;5077352;28;20041;-94
2023/03/02 18:31:22;;;;;;;21.95;18.92;;;10.80;99.90;;;;;;5240915;22;20121;-93
2023/03/02 18:33:50;;;;;;;18.90;16.92;;;10.80;99.90;;;;;;5073116;28;20055;-93
2023/03/02 18:36:22;;;;;;;17.42;15.93;;;10.70;99.90;;;;;;5073928;28;20055;-92
2023/03/02 18:38:53;;;;;;;17.25;15.75;;;10.60;99.90;;;;;;5040260;28;20037;-93
2023/03/02 18:41:26;;;;;;;18.23;15.25;;;10.50;99.90;;;;;;5079309;28;20029;-93
2023/03/02 18:43:53;;;;;;;17.63;14.88;;;10.40;99.90;;;;;;5056655;28;20037;-93
2023/03/02 18:46:35;;;;;;;21.38;16.20;;;10.40;99.90;;;;;;5073129;28;20028;-92
2023/03/02 18:49:03;;;;;;;17.42;15.57;;;10.50;99.90;;;;;;5070957;28;20048;-94
2023/03/02 18:51:33;;;;;;;19.13;17.08;;;10.50;99.90;;;;;;5049790;23;20049;-93
2023/03/02 18:54:06;;;;;;;18.38;16.70;;;10.60;99.90;;;;;;5043040;28;20057;-93
2023/03/02 18:56:40;;;;;;;20.30;16.05;;;10.60;99.90;;;;;;5071934;28;20084;-92
2023/03/02 18:59:19;;;;;;;19.48;16.75;;;10.60;99.90;;;;;;5024992;28;20041;-93
2023/03/02 19:01:58;;;;;;;19.67;16.70;;;10.60;99.90;;;;;;5037556;28;20013;-93
2023/03/02 19:04:29;;;;;;;19.15;17.30;;;10.60;99.90;;;;;;5035731;28;20029;-93
2023/03/02 19:06:59;;;;;;;26.40;19.00;;;10.60;99.90;;;;;;5030870;28;20517;-92
2023/03/02 19:09:29;;;;;;;21.15;19.00;;;10.60;99.90;;;;;;5032312;28;20068;-94
2023/03/02 19:11:56;;;;;;;21.27;19.00;;;10.60;99.90;;;;;;5070115;22;20047;-93
2023/03/02 19:14:23;;;;;;;21.83;19.52;;;10.50;99.90;;;;;;5065555;28;20524;-93
2023/03/02 19:16:50;;;;;;;25.00;18.67;;;10.50;99.90;;;;;;5061303;28;20020;-93
2023/03/02 19:19:17;;;;;;;22.20;19.08;;;10.40;99.90;;;;;;5063933;28;20029;-92
2023/03/02 19:21:46;;;;;;;22.73;19.55;;;10.30;99.90;;;;;;5081813;28;20035;-92
2023/03/02 19:24:13;;;;;;;22.80;18.65;;;10.20;99.90;;;;;;5060821;28;20024;-93
2023/03/02 19:26:40;;;;;;;24.63;19.08;;;10.10;99.90;;;;;;5060790;28;20020;-92
2023/03/02 19:29:06;;;;;;;21.38;18.60;;;10.10;99.90;;;;;;5059288;28;20028;-93
2023/03/02 19:31:42;;;;;;;23.52;18.20;;;10.00;99.90;;;;;;5062081;28;20029;-95
2023/03/02 19:34:09;;;;;;;20.90;18.73;;;10.00;99.90;;;;;;5063082;28;20466;-93
2023/03/02 19:36:35;;;;;;;24.70;19.95;;;10.00;99.90;;;;;;5061476;28;20016;-93
2023/03/02 19:39:02;;;;;;;26.73;19.63;;;10.00;99.90;;;;;;5060535;28;20052;-94
2023/03/02 19:41:29;;;;;;;22.70;19.35;;;10.00;99.90;;;;;;5060954;28;20074;-93
2023/03/02 19:43:56;;;;;;;25.75;19.80;;;9.90;99.90;;;;;;5060952;28;20021;-93
2023/03/02 19:46:23;;;;;;;23.85;19.25;;;9.80;99.90;;;;;;5065783;28;20074;-93
2023/03/02 19:48:50;;;;;;;29.70;20.50;;;9.70;99.90;;;;;;5060433;28;20028;-92
2023/03/02 19:51:24;;;;;;;29.88;20.05;;;9.70;99.90;;;;;;5060769;28;20056;-93
2023/03/02 19:53:50;;;;;;;35.17;22.08;;;9.70;99.90;;;;;;5061359;28;20119;-93
2023/03/02 19:56:20;;;;;;;35.40;21.52;;;9.70;99.90;;;;;;5066894;28;20071;-92
2023/03/02 19:58:48;;;;;;;38.10;26.35;;;9.70;99.90;;;;;;5062756;28;20033;-93
2023/03/02 20:01:20;;;;;;;40.30;27.30;;;9.80;99.90;;;;;;5061271;28;20021;-93
2023/03/02 20:03:54;;;;;;;44.97;27.65;;;9.80;99.90;;;;;;5066663;28;20009;-95
2023/03/02 20:07:18;;;;;;;37.33;26.03;;;9.80;99.90;;;;;;5055614;23;20042;-94
2023/03/02 20:10:42;;;;;;;43.80;29.02;;;9.80;99.90;;;;;;4989989;28;20047;-93
2023/03/02 20:16:25;;;;;;;61.65;41.65;;;9.90;99.90;;;;;;4965293;29;20071;-93
2023/03/02 20:28:37;;;;;;;49.53;33.72;;;9.50;99.90;;;;;;5401996;23;20112;-92
2023/03/02 20:32:11;;;;;;;54.83;35.92;;;9.50;99.90;;;;;;5081466;22;20028;-91
2023/03/02 20:34:42;;;;;;;52.15;34.58;;;9.50;99.90;;;;;;5009447;28;20045;-93
2023/03/02 20:37:14;;;;;;;51.75;35.55;;;9.40;99.90;;;;;;5018281;28;20030;-95
2023/03/02 20:39:47;;;;;;;59.90;38.45;;;9.30;99.90;;;;;;5010403;28;20031;-92
2023/03/02 20:42:34;;;;;;;57.97;40.72;;;9.30;99.90;;;;;;5185039;23;20017;-93
2023/03/02 20:45:05;;;;;;;55.15;37.10;;;9.20;99.90;;;;;;4986898;28;20030;-92
2023/03/02 20:47:32;;;;;;;58.97;37.72;;;9.20;99.90;;;;;;4966064;28;20038;-93
2023/03/02 20:49:59;;;;;;;57.05;35.88;;;9.10;99.90;;;;;;4982833;28;20023;-94
2023/03/02 20:52:26;;;;;;;62.67;38.33;;;9.00;99.90;;;;;;4982373;28;20042;-92
2023/03/02 20:54:53;;;;;;;55.40;39.70;;;9.00;99.90;;;;;;4965713;28;20030;-93
2023/03/02 20:57:21;;;;;;;63.10;41.58;;;9.00;99.90;;;;;;4982240;28;20036;-94
2023/03/02 20:59:49;;;;;;;56.85;40.50;;;9.00;99.90;;;;;;4966645;28;20484;-94
2023/03/02 21:02:18;;;;;;;60.72;39.65;;;9.00;99.90;;;;;;4965632;28;20045;-93
2023/03/02 21:04:45;;;;;;;66.47;39.75;;;9.10;99.90;;;;;;4965704;28;20030;-93
2023/03/02 21:07:14;;;;;;;57.78;38.08;;;9.10;99.90;;;;;;4980422;28;20027;-93
2023/03/02 21:09:52;;;;;;;54.30;36.90;;;9.10;99.90;;;;;;4982047;28;20049;-94
2023/03/02 21:12:20;;;;;;;48.97;34.40;;;9.10;99.90;;;;;;4979775;28;20514;-94
2023/03/02 21:14:49;;;;;;;57.35;33.72;;;9.20;99.90;;;;;;4964151;28;20046;-93
2023/03/02 21:20:47;;;;;;;;;;;;;;;;;;;;;
2023/03/02 21:23:30;;;;;;;52.60;34.90;;;9.20;99.90;;;;;;5111584;23;20080;-92
2023/03/02 21:25:57;;;;;;;51.38;33.25;;;9.10;99.90;;;;;;4987461;28;20034;-91
2023/03/02 21:28:23;;;;;;;51.42;33.13;;;9.00;99.90;;;;;;4982830;28;20102;-93